Time;durP1;ratioP1;P1;durP2;ratioP2;P2;SDS_P1;SDS_P2;PMS_P1;PMS_P2;Temp;Humidity;BMP_temperature;BMP_pressure;BME280_temperature;BME280_humidity;BME280_pressure;Samples;Min_cycle;Max_cycle;Signal;HPM_P1;HPM_P2
2024/01/22 00:01:02;;;;;;;8.97;8.73;;;0.90;99.90;;;;;;6235636;22;20210;-83
2024/01/22 02:43:21;;;;;;;9.63;9.33;;;0.30;99.90;;;;;;6220078;22;20205;-83
2024/01/22 02:45:49;;;;;;;9.70;9.40;;;0.30;99.90;;;;;;6250101;22;20181;-80
2024/01/22 02:48:16;;;;;;;9.40;9.10;;;0.30;99.90;;;;;;6250563;22;20218;-80
2024/01/22 02:50:43;;;;;;;9.30;9.00;;;0.30;99.90;;;;;;6250523;22;20210;-80
2024/01/22 02:53:11;;;;;;;9.47;9.17;;;0.30;99.90;;;;;;6250251;22;20190;-80
2024/01/22 02:55:38;;;;;;;9.60;9.30;;;0.40;99.90;;;;;;6250479;22;20198;-82
2024/01/22 02:58:06;;;;;;;9.20;8.90;;;0.40;99.90;;;;;;6247653;22;20247;-80
2024/01/22 03:00:35;;;;;;;9.03;8.80;;;0.40;99.90;;;;;;6242479;23;20207;-80
2024/01/22 03:03:02;;;;;;;9.17;8.87;;;0.40;99.90;;;;;;6231147;22;20218;-82
2024/01/22 03:05:29;;;;;;;9.03;8.80;;;0.40;99.90;;;;;;6231304;23;20203;-82
2024/01/22 03:07:57;;;;;;;9.10;8.83;;;0.40;99.90;;;;;;6231044;23;20273;-82
2024/01/22 03:10:24;;;;;;;9.20;8.90;;;0.40;99.90;;;;;;6230071;23;20285;-81
2024/01/22 03:12:57;;;;;;;9.23;8.93;;;0.40;99.90;;;;;;6230073;22;20199;-82
2024/01/22 03:15:24;;;;;;;9.27;8.97;;;0.40;99.90;;;;;;6229879;23;20207;-81
2024/01/22 03:17:53;;;;;;;8.80;8.60;;;0.40;99.90;;;;;;6229835;23;20221;-81
2024/01/22 03:20:20;;;;;;;9.33;9.03;;;0.40;99.90;;;;;;6230170;23;20250;-82
2024/01/22 03:22:55;;;;;;;8.97;8.77;;;0.40;99.90;;;;;;6229721;22;20198;-82
2024/01/22 03:25:22;;;;;;;9.40;9.10;;;0.40;99.90;;;;;;6230696;23;20207;-82
2024/01/22 03:27:49;;;;;;;8.80;8.60;;;0.40;99.90;;;;;;6230088;23;20194;-83
2024/01/22 03:30:17;;;;;;;9.60;9.30;;;0.50;99.90;;;;;;6230477;23;20202;-82
2024/01/22 03:32:45;;;;;;;9.60;9.30;;;0.50;99.90;;;;;;6230411;22;20214;-82
2024/01/22 03:35:17;;;;;;;9.03;8.80;;;0.50;99.90;;;;;;6229920;23;20246;-82
2024/01/22 03:37:44;;;;;;;9.27;8.97;;;0.60;99.90;;;;;;6231654;23;20213;-82
2024/01/22 03:40:12;;;;;;;9.47;9.17;;;0.60;99.90;;;;;;6231433;23;20255;-81
2024/01/22 03:42:39;;;;;;;8.97;8.77;;;0.60;99.90;;;;;;6231437;22;20203;-82
2024/01/22 03:45:08;;;;;;;9.50;9.20;;;0.60;99.90;;;;;;6231229;23;20207;-81
2024/01/22 03:47:35;;;;;;;9.40;9.10;;;0.60;99.90;;;;;;6230751;23;20203;-82
2024/01/22 03:50:03;;;;;;;9.17;8.87;;;0.70;99.90;;;;;;6230140;23;20195;-82
2024/01/22 03:52:31;;;;;;;8.90;8.70;;;0.70;99.90;;;;;;6229846;22;20213;-81
2024/01/22 03:54:58;;;;;;;9.43;9.13;;;0.70;99.90;;;;;;6229717;23;20198;-82
2024/01/22 03:57:25;;;;;;;9.40;9.10;;;0.70;99.90;;;;;;6234746;22;20206;-81
2024/01/22 03:59:53;;;;;;;9.60;9.30;;;0.70;99.90;;;;;;6236414;23;20270;-82
2024/01/22 04:02:20;;;;;;;9.40;9.10;;;0.70;99.90;;;;;;6233530;22;20207;-82
2024/01/22 04:04:47;;;;;;;9.30;9.00;;;0.70;99.90;;;;;;6232408;23;20198;-81
2024/01/22 04:07:15;;;;;;;9.07;8.80;;;0.70;99.90;;;;;;6230938;23;20229;-82
2024/01/22 04:09:44;;;;;;;9.20;8.90;;;0.70;99.90;;;;;;6231006;23;20266;-82
2024/01/22 04:12:11;;;;;;;9.23;8.93;;;0.70;99.90;;;;;;6230647;22;20265;-81
2024/01/22 04:14:38;;;;;;;9.23;8.93;;;0.70;99.90;;;;;;6229833;23;20203;-81
2024/01/22 04:17:06;;;;;;;9.33;9.03;;;0.70;99.90;;;;;;6230186;23;20674;-81
2024/01/22 04:19:33;;;;;;;9.27;8.97;;;0.80;99.90;;;;;;6230273;23;20206;-82
2024/01/22 04:22:03;;;;;;;9.50;9.20;;;0.80;99.90;;;;;;6232754;22;20199;-81
2024/01/22 04:24:30;;;;;;;9.20;8.90;;;0.80;99.90;;;;;;6234466;23;20206;-82
2024/01/22 04:26:59;;;;;;;9.40;9.10;;;0.80;99.90;;;;;;6232702;23;20191;-82
2024/01/22 04:29:27;;;;;;;9.47;9.17;;;0.90;99.90;;;;;;6232573;23;20203;-82
2024/01/22 04:31:57;;;;;;;9.70;9.40;;;0.90;99.90;;;;;;6231504;22;20226;-82
2024/01/22 04:34:24;;;;;;;9.63;9.33;;;0.90;99.90;;;;;;6231366;23;20199;-81
2024/01/22 04:36:52;;;;;;;9.70;9.40;;;0.90;99.90;;;;;;6229686;23;20235;-81
2024/01/22 04:39:20;;;;;;;9.47;9.17;;;1.00;99.90;;;;;;6229697;23;20249;-81
2024/01/22 04:41:48;;;;;;;9.57;9.27;;;1.00;99.90;;;;;;6229580;22;20249;-81
2024/01/22 04:44:17;;;;;;;9.50;9.20;;;1.00;99.90;;;;;;6230636;23;20226;-81
2024/01/22 04:46:44;;;;;;;9.40;9.10;;;1.00;99.90;;;;;;6239962;22;20183;-81
2024/01/22 04:49:12;;;;;;;9.50;9.20;;;1.00;99.90;;;;;;6236622;22;20199;-81
2024/01/22 04:51:43;;;;;;;9.60;9.30;;;1.00;99.90;;;;;;6229356;22;20253;-81
2024/01/22 04:54:19;;;;;;;9.77;9.47;;;1.10;99.90;;;;;;6230758;23;20278;-83
2024/01/22 04:56:48;;;;;;;9.40;9.10;;;1.10;99.90;;;;;;6229929;23;20221;-81
2024/01/22 04:59:19;;;;;;;9.70;9.40;;;1.20;99.90;;;;;;6230021;23;20203;-81
2024/01/22 05:01:47;;;;;;;9.70;9.40;;;1.20;99.90;;;;;;6232713;22;20234;-82
2024/01/22 05:04:14;;;;;;;9.87;9.57;;;1.20;99.90;;;;;;6233360;23;20234;-81
2024/01/22 05:06:43;;;;;;;9.80;9.50;;;1.30;99.90;;;;;;6231465;23;20210;-82
2024/01/22 05:09:11;;;;;;;9.77;9.47;;;1.30;99.90;;;;;;6231343;23;20210;-81
2024/01/22 05:11:38;;;;;;;9.63;9.33;;;1.30;99.90;;;;;;6230816;22;20209;-81
2024/01/22 05:14:16;;;;;;;9.33;9.03;;;1.40;99.90;;;;;;6231989;23;20195;-82
2024/01/22 05:16:45;;;;;;;9.50;9.20;;;1.40;99.90;;;;;;6231589;23;20198;-83
2024/01/22 05:19:15;;;;;;;9.50;9.20;;;1.40;99.90;;;;;;6231744;23;20206;-81
2024/01/22 05:21:43;;;;;;;9.43;9.13;;;1.50;99.90;;;;;;6232591;22;20195;-81
2024/01/22 05:24:10;;;;;;;9.40;9.10;;;1.50;99.90;;;;;;6230921;23;20199;-81
2024/01/22 05:26:40;;;;;;;9.97;9.67;;;1.60;99.90;;;;;;6230872;23;20203;-82
2024/01/22 05:29:07;;;;;;;9.93;9.63;;;1.60;99.90;;;;;;6231654;23;20203;-82
2024/01/22 05:31:43;;;;;;;9.83;9.53;;;1.60;99.90;;;;;;6231530;23;20207;-81
2024/01/22 05:34:11;;;;;;;9.80;9.50;;;1.60;99.90;;;;;;6231543;23;20313;-82
2024/01/22 05:36:43;;;;;;;10.03;9.73;;;1.70;99.90;;;;;;6231749;23;20199;-83
2024/01/22 05:39:10;;;;;;;10.30;10.00;;;1.70;99.90;;;;;;6231332;23;20263;-81
2024/01/22 05:41:48;;;;;;;10.10;9.80;;;1.70;99.90;;;;;;6231444;22;20191;-82
2024/01/22 05:44:26;;;;;;;10.13;9.83;;;1.80;99.90;;;;;;6050782;23;20274;-82
2024/01/22 05:46:55;;;;;;;9.73;9.43;;;1.80;99.90;;;;;;6059831;23;20262;-81
2024/01/22 05:49:28;;;;;;;9.83;9.53;;;1.80;99.90;;;;;;6052988;23;20221;-82
2024/01/22 05:51:56;;;;;;;9.87;9.57;;;1.90;99.90;;;;;;6056484;23;20207;-81
2024/01/22 05:54:23;;;;;;;9.80;9.50;;;2.00;99.90;;;;;;6056577;23;20209;-82
2024/01/22 05:56:57;;;;;;;9.70;9.40;;;2.00;99.90;;;;;;6056097;23;20245;-81
2024/01/22 05:59:33;;;;;;;9.73;9.43;;;2.10;99.90;;;;;;6052401;23;20203;-81
2024/01/22 06:02:16;;;;;;;9.90;9.60;;;2.10;99.90;;;;;;6052160;23;20213;-82
2024/01/22 06:04:46;;;;;;;9.90;9.60;;;2.10;99.90;;;;;;6051302;23;20222;-82
2024/01/22 06:07:14;;;;;;;9.90;9.60;;;2.20;99.90;;;;;;6050729;23;20197;-81
2024/01/22 06:09:41;;;;;;;10.03;9.73;;;2.20;99.90;;;;;;6050912;23;20207;-82
2024/01/22 06:12:12;;;;;;;9.90;9.60;;;2.20;99.90;;;;;;6049717;23;20218;-81
2024/01/22 06:14:40;;;;;;;9.87;9.57;;;2.20;99.90;;;;;;6050481;23;20205;-82
2024/01/22 06:17:09;;;;;;;9.90;9.60;;;2.20;99.90;;;;;;6050289;23;20195;-81
2024/01/22 06:19:40;;;;;;;9.80;9.50;;;2.20;99.90;;;;;;6050517;23;20254;-82
2024/01/22 06:22:07;;;;;;;9.90;9.60;;;2.30;99.90;;;;;;6050561;23;20215;-81
2024/01/22 06:24:36;;;;;;;9.83;9.53;;;2.30;99.90;;;;;;6050309;23;20266;-82
2024/01/22 06:27:09;;;;;;;10.07;9.77;;;2.30;99.90;;;;;;6050026;23;20210;-82
2024/01/22 06:29:39;;;;;;;9.60;9.30;;;2.30;99.90;;;;;;6050181;23;20263;-82
2024/01/22 06:32:08;;;;;;;10.00;9.70;;;2.30;99.90;;;;;;6051541;23;20214;-82
2024/01/22 06:34:38;;;;;;;9.87;9.57;;;2.40;99.90;;;;;;6050566;23;20247;-81
2024/01/22 06:37:11;;;;;;;10.10;9.80;;;2.30;99.90;;;;;;6049509;23;20195;-82
2024/01/22 06:39:38;;;;;;;9.73;9.43;;;2.40;99.90;;;;;;6057432;23;20203;-82
2024/01/22 06:42:07;;;;;;;10.10;9.80;;;2.40;99.90;;;;;;6081809;22;20234;-82
2024/01/22 06:44:34;;;;;;;9.90;9.60;;;2.40;99.90;;;;;;6245796;23;20194;-82
2024/01/22 06:47:03;;;;;;;9.73;9.43;;;2.40;99.90;;;;;;6244451;23;20203;-82
2024/01/22 06:49:32;;;;;;;9.90;9.60;;;2.50;99.90;;;;;;6242636;23;20206;-83
2024/01/22 06:52:00;;;;;;;9.50;9.20;;;2.50;99.90;;;;;;6238900;22;20199;-82
2024/01/22 06:54:27;;;;;;;9.67;9.37;;;2.60;99.90;;;;;;6235391;23;20196;-83
2024/01/22 06:56:55;;;;;;;9.60;9.30;;;2.60;99.90;;;;;;6234672;23;20199;-82
2024/01/22 06:59:36;;;;;;;;;;;;;;;;;;;;;
2024/01/22 07:02:03;;;;;;;10.20;9.90;;;2.70;99.90;;;;;;6234342;22;20266;-83
2024/01/22 07:04:32;;;;;;;9.97;9.67;;;2.70;99.90;;;;;;6234141;23;20278;-83
2024/01/22 07:07:03;;;;;;;9.97;9.67;;;2.80;99.90;;;;;;6235215;23;20253;-82
2024/01/22 07:09:33;;;;;;;9.67;9.37;;;2.80;99.90;;;;;;6232573;23;20281;-82
2024/01/22 07:12:01;;;;;;;9.70;9.40;;;2.90;99.90;;;;;;6232536;22;20262;-84
2024/01/22 07:14:29;;;;;;;9.90;9.60;;;2.90;99.90;;;;;;6233744;23;20190;-83
2024/01/22 07:16:57;;;;;;;10.10;9.80;;;2.90;99.90;;;;;;6232676;23;20206;-83
2024/01/22 07:19:27;;;;;;;9.73;9.43;;;3.00;99.90;;;;;;6232069;23;20282;-82
2024/01/22 07:22:00;;;;;;;9.90;9.60;;;3.10;99.90;;;;;;6232434;22;20187;-83
2024/01/22 07:24:28;;;;;;;9.50;9.20;;;3.10;99.90;;;;;;6232528;23;20216;-83
2024/01/22 07:27:04;;;;;;;9.73;9.43;;;3.10;99.90;;;;;;6232711;23;20201;-83
2024/01/22 07:29:38;;;;;;;10.00;9.70;;;3.20;99.90;;;;;;6232651;23;20267;-83
2024/01/22 07:32:06;;;;;;;10.17;9.87;;;3.20;99.90;;;;;;6233017;22;20221;-83
2024/01/22 07:34:34;;;;;;;10.20;9.90;;;3.30;99.90;;;;;;6233163;23;20199;-83
2024/01/22 07:37:03;;;;;;;9.80;9.50;;;3.30;99.90;;;;;;6232107;23;20213;-83
2024/01/22 07:39:30;;;;;;;10.20;9.90;;;3.40;99.90;;;;;;6232515;23;20650;-83
2024/01/22 07:42:01;;;;;;;9.63;9.33;;;3.40;99.90;;;;;;6232564;22;20203;-83
2024/01/22 07:44:38;;;;;;;10.20;9.90;;;3.50;99.90;;;;;;6233080;23;20222;-83
2024/01/22 07:47:11;;;;;;;10.03;9.73;;;3.50;99.90;;;;;;6232595;23;20190;-83
2024/01/22 07:49:44;;;;;;;9.83;9.53;;;3.60;99.90;;;;;;6233228;23;20187;-82
2024/01/22 07:52:16;;;;;;;10.17;9.87;;;3.60;99.90;;;;;;6232110;22;20199;-83
2024/01/22 07:54:44;;;;;;;10.03;9.73;;;3.70;99.90;;;;;;6233207;23;20213;-84
2024/01/22 07:57:13;;;;;;;10.10;9.80;;;3.70;99.90;;;;;;6232510;23;20199;-83
2024/01/22 07:59:40;;;;;;;10.10;9.80;;;3.70;99.90;;;;;;6233188;23;20199;-83
2024/01/22 08:02:08;;;;;;;9.70;9.40;;;3.80;99.90;;;;;;6232339;22;20202;-82
2024/01/22 08:04:37;;;;;;;10.10;9.80;;;3.80;99.90;;;;;;6233116;23;20219;-82
2024/01/22 08:07:12;;;;;;;9.60;9.30;;;3.90;99.90;;;;;;6233208;23;20203;-82
2024/01/22 08:09:56;;;;;;;9.67;9.37;;;3.90;99.90;;;;;;6233262;23;20182;-82
2024/01/22 08:12:24;;;;;;;10.00;9.70;;;4.00;99.90;;;;;;6232910;22;20282;-82
2024/01/22 08:14:58;;;;;;;10.00;9.70;;;4.10;99.90;;;;;;6235102;23;20201;-83
2024/01/22 08:17:30;;;;;;;10.00;9.70;;;4.20;99.90;;;;;;6239963;23;20191;-82
2024/01/22 08:19:57;;;;;;;10.07;9.77;;;4.20;99.90;;;;;;6233583;23;20198;-82
2024/01/22 08:22:26;;;;;;;9.97;9.67;;;4.30;99.90;;;;;;6231843;22;20563;-81
2024/01/22 08:24:54;;;;;;;10.00;9.70;;;4.30;99.90;;;;;;6232235;23;20210;-82
2024/01/22 08:27:21;;;;;;;10.47;10.17;;;4.30;99.90;;;;;;6231688;23;20206;-81
2024/01/22 08:29:49;;;;;;;10.40;10.10;;;4.30;99.90;;;;;;6231387;23;20250;-82
2024/01/22 08:32:16;;;;;;;10.30;10.00;;;4.40;99.90;;;;;;6235011;22;21188;-81
2024/01/22 08:34:44;;;;;;;10.00;9.70;;;4.40;99.90;;;;;;6242470;23;20206;-81
2024/01/22 08:37:15;;;;;;;10.07;9.77;;;4.40;99.90;;;;;;6246051;23;20190;-82
2024/01/22 08:40:03;;;;;;;9.90;9.60;;;4.40;99.90;;;;;;6246733;23;20199;-82
2024/01/22 08:42:31;;;;;;;10.23;9.93;;;4.50;99.90;;;;;;6241089;22;20206;-88
2024/01/22 08:44:59;;;;;;;10.43;10.13;;;4.50;99.90;;;;;;6232306;23;20226;-86
2024/01/22 08:47:26;;;;;;;10.40;10.10;;;4.50;99.90;;;;;;6232254;23;20285;-87
2024/01/22 08:49:53;;;;;;;10.37;10.07;;;4.60;99.90;;;;;;6232406;23;20255;-86
2024/01/22 08:52:21;;;;;;;10.43;10.13;;;4.60;99.90;;;;;;6232653;22;20211;-86
2024/01/22 08:54:50;;;;;;;10.23;9.93;;;4.60;99.90;;;;;;6234905;23;20225;-86
2024/01/22 08:57:19;;;;;;;10.57;10.27;;;4.60;99.90;;;;;;6233281;23;20210;-86
2024/01/22 08:59:46;;;;;;;10.40;10.10;;;4.60;99.90;;;;;;6232319;23;20206;-86
2024/01/22 09:02:14;;;;;;;9.90;9.60;;;4.60;99.90;;;;;;6232322;22;20197;-86
2024/01/22 09:04:41;;;;;;;9.87;9.57;;;4.60;99.90;;;;;;6232057;23;20194;-87
2024/01/22 09:07:09;;;;;;;9.73;9.43;;;4.60;99.90;;;;;;6232017;23;20261;-87
2024/01/22 09:09:36;;;;;;;9.63;9.33;;;4.70;99.90;;;;;;6232194;23;20203;-87
2024/01/22 09:12:07;;;;;;;10.03;9.73;;;4.70;99.90;;;;;;6231741;22;20203;-86
2024/01/22 09:14:34;;;;;;;9.83;9.53;;;4.70;99.90;;;;;;6233084;23;20187;-87
2024/01/22 09:17:02;;;;;;;10.40;10.10;;;4.80;99.90;;;;;;6232059;23;20202;-86
2024/01/22 09:19:32;;;;;;;10.00;9.70;;;4.80;99.90;;;;;;6231346;23;20353;-86
2024/01/22 09:21:59;;;;;;;10.30;10.00;;;4.90;99.90;;;;;;6231343;23;20273;-87
2024/01/22 09:24:28;;;;;;;10.10;9.80;;;4.80;99.90;;;;;;6230500;23;20191;-86
2024/01/22 09:26:57;;;;;;;10.37;10.07;;;4.90;99.90;;;;;;6230037;23;20233;-87
2024/01/22 09:29:26;;;;;;;9.90;9.60;;;4.90;99.90;;;;;;6230373;23;20203;-87
2024/01/22 09:31:55;;;;;;;10.20;9.90;;;4.90;99.90;;;;;;6230773;23;20233;-86
2024/01/22 09:34:24;;;;;;;10.00;9.70;;;5.00;99.90;;;;;;6229622;22;20278;-86
2024/01/22 09:36:52;;;;;;;10.17;9.87;;;5.00;99.90;;;;;;6230524;23;20195;-86
2024/01/22 09:39:19;;;;;;;10.27;9.97;;;5.00;99.90;;;;;;6230057;23;20211;-86
2024/01/22 09:41:49;;;;;;;10.37;10.07;;;5.10;99.90;;;;;;6237893;22;20179;-86
2024/01/22 09:44:17;;;;;;;10.37;10.07;;;5.20;99.90;;;;;;6237973;22;20211;-86
2024/01/22 09:46:47;;;;;;;10.60;10.30;;;5.20;99.90;;;;;;6231172;23;20198;-85
2024/01/22 09:49:14;;;;;;;10.30;10.00;;;5.20;99.90;;;;;;6231687;23;20227;-86
2024/01/22 09:51:44;;;;;;;10.10;9.80;;;5.20;99.90;;;;;;6230857;23;20222;-86
2024/01/22 09:54:17;;;;;;;10.20;9.90;;;5.30;99.90;;;;;;6234937;22;20218;-86
2024/01/22 09:56:52;;;;;;;10.00;9.70;;;5.40;99.90;;;;;;6233677;23;20199;-87
2024/01/22 09:59:21;;;;;;;9.80;9.50;;;5.50;99.90;;;;;;6232320;23;20191;-87
2024/01/22 10:01:52;;;;;;;9.50;9.20;;;5.50;99.90;;;;;;6232712;23;20222;-86
2024/01/22 10:04:23;;;;;;;9.77;9.47;;;5.50;99.90;;;;;;6232160;22;20207;-86
2024/01/22 10:06:51;;;;;;;9.93;9.63;;;5.60;99.90;;;;;;6230888;23;20195;-86
2024/01/22 10:09:19;;;;;;;9.63;9.33;;;5.60;99.90;;;;;;6231788;23;20194;-86
2024/01/22 10:11:48;;;;;;;9.60;9.30;;;5.70;99.90;;;;;;6231746;23;20205;-86
2024/01/22 10:14:27;;;;;;;9.53;9.23;;;5.80;99.90;;;;;;6232054;22;20205;-86
2024/01/22 10:16:56;;;;;;;9.40;9.10;;;5.90;99.90;;;;;;6232742;23;20214;-87
2024/01/22 10:19:27;;;;;;;9.70;9.40;;;6.00;99.90;;;;;;6232354;23;20199;-87
2024/01/22 10:22:01;;;;;;;9.97;9.67;;;6.00;99.90;;;;;;6233236;23;20201;-87
2024/01/22 10:24:30;;;;;;;10.00;9.70;;;6.10;99.90;;;;;;6233219;23;20190;-86
2024/01/22 10:27:16;;;;;;;10.17;9.87;;;6.10;99.90;;;;;;6238834;23;20207;-87
2024/01/22 10:29:45;;;;;;;9.87;9.57;;;6.10;99.90;;;;;;6240120;23;20195;-87
2024/01/22 10:32:21;;;;;;;10.10;9.80;;;6.10;99.90;;;;;;6233672;22;20209;-85
2024/01/22 10:34:53;;;;;;;10.43;10.13;;;6.20;99.90;;;;;;6232965;23;20206;-86
2024/01/22 10:37:21;;;;;;;10.10;9.80;;;6.30;99.90;;;;;;6232821;23;20186;-86
2024/01/22 10:40:00;;;;;;;9.90;9.60;;;6.40;99.90;;;;;;6232990;23;20207;-86
2024/01/22 10:42:28;;;;;;;10.10;9.80;;;6.40;99.90;;;;;;6233011;22;20277;-86
2024/01/22 10:44:58;;;;;;;9.80;9.50;;;6.50;99.90;;;;;;6238236;23;20195;-86
2024/01/22 10:47:31;;;;;;;9.80;9.50;;;6.60;99.90;;;;;;6232886;23;20199;-86
2024/01/22 10:50:05;;;;;;;9.70;9.40;;;6.80;99.90;;;;;;6232218;23;20654;-87
2024/01/22 10:52:35;;;;;;;10.17;9.87;;;6.80;99.90;;;;;;6234542;22;20222;-87
2024/01/22 10:55:12;;;;;;;10.03;9.73;;;6.90;99.90;;;;;;6234470;23;20191;-86
2024/01/22 10:57:43;;;;;;;10.20;9.90;;;7.00;99.90;;;;;;6238425;23;20202;-86
2024/01/22 11:00:15;;;;;;;9.80;9.50;;;7.10;99.90;;;;;;6234477;23;20270;-87
2024/01/22 11:02:53;;;;;;;9.93;9.63;;;7.10;99.90;;;;;;6232393;22;20207;-87
2024/01/22 11:05:23;;;;;;;9.80;9.50;;;7.20;99.90;;;;;;6232210;23;20190;-86
2024/01/22 11:07:53;;;;;;;9.90;9.60;;;7.30;99.90;;;;;;6231260;23;20199;-86
2024/01/22 11:10:22;;;;;;;9.80;9.50;;;7.40;99.90;;;;;;6231627;23;20613;-86
2024/01/22 11:12:54;;;;;;;9.47;9.17;;;7.40;99.90;;;;;;6231739;22;20263;-86
2024/01/22 11:15:22;;;;;;;9.60;9.30;;;7.50;99.90;;;;;;6231224;23;20187;-87
2024/01/22 11:17:54;;;;;;;9.57;9.27;;;7.60;99.90;;;;;;6233655;23;20206;-87
2024/01/22 11:20:24;;;;;;;9.87;9.57;;;7.60;99.90;;;;;;6231864;23;20211;-87
2024/01/22 11:23:01;;;;;;;9.70;9.40;;;7.70;99.90;;;;;;6232294;22;20199;-86
2024/01/22 11:25:34;;;;;;;9.80;9.50;;;7.80;99.90;;;;;;6232673;23;20259;-87
2024/01/22 11:28:15;;;;;;;9.60;9.30;;;7.90;99.90;;;;;;6233551;23;20213;-87
2024/01/22 11:30:44;;;;;;;9.60;9.30;;;7.90;99.90;;;;;;6232924;23;20183;-87
2024/01/22 11:33:33;;;;;;;9.60;9.30;;;7.90;99.90;;;;;;6233214;22;20206;-86
2024/01/22 11:36:01;;;;;;;9.40;9.10;;;8.00;99.90;;;;;;6232706;23;20205;-87
2024/01/22 11:38:52;;;;;;;9.40;9.10;;;8.00;99.90;;;;;;6233053;23;20198;-87
2024/01/22 11:41:40;;;;;;;9.80;9.50;;;7.90;99.90;;;;;;6232853;23;20191;-86
2024/01/22 11:44:10;;;;;;;9.70;9.40;;;7.80;99.90;;;;;;6233078;22;20203;-86
2024/01/22 11:46:37;;;;;;;9.80;9.50;;;7.70;99.90;;;;;;6243249;22;20199;-86
2024/01/22 11:49:11;;;;;;;9.90;9.60;;;7.60;99.90;;;;;;6241078;23;20197;-87
2024/01/22 11:51:39;;;;;;;9.90;9.60;;;7.50;99.90;;;;;;6247529;23;20217;-87
2024/01/22 11:54:08;;;;;;;9.83;9.53;;;7.50;99.90;;;;;;6244363;22;20202;-87
2024/01/22 11:56:36;;;;;;;10.20;9.90;;;7.50;99.90;;;;;;6247550;23;20199;-86
2024/01/22 11:59:03;;;;;;;9.63;9.33;;;7.50;99.90;;;;;;6241351;22;20199;-88
2024/01/22 12:01:31;;;;;;;9.40;9.10;;;7.50;99.90;;;;;;6234747;23;20187;-87
2024/01/22 12:04:13;;;;;;;9.80;9.50;;;7.50;99.90;;;;;;6234137;22;20234;-87
2024/01/22 12:06:50;;;;;;;9.60;9.30;;;7.50;99.90;;;;;;6233682;23;20222;-87
2024/01/22 12:09:17;;;;;;;9.70;9.40;;;7.50;99.90;;;;;;6232283;23;20250;-86
2024/01/22 12:11:52;;;;;;;9.70;9.40;;;7.50;99.90;;;;;;6205167;23;20206;-87
2024/01/22 12:14:20;;;;;;;9.60;9.30;;;7.50;99.90;;;;;;6231935;22;20290;-87
2024/01/22 12:16:49;;;;;;;9.80;9.50;;;7.50;99.90;;;;;;6231282;23;20226;-87
2024/01/22 12:19:19;;;;;;;9.60;9.30;;;7.40;99.90;;;;;;6230807;23;20254;-86
2024/01/22 12:21:47;;;;;;;9.60;9.30;;;7.50;99.90;;;;;;6232741;23;20210;-87
2024/01/22 12:24:15;;;;;;;9.20;8.90;;;7.50;99.90;;;;;;6231022;22;20203;-87
2024/01/22 12:26:43;;;;;;;9.27;8.97;;;7.40;99.90;;;;;;6231816;23;20269;-87
2024/01/22 12:29:24;;;;;;;9.67;9.37;;;7.40;99.90;;;;;;6232019;23;20209;-87
2024/01/22 12:32:04;;;;;;;9.70;9.40;;;7.40;99.90;;;;;;6233964;23;20195;-87
2024/01/22 12:34:38;;;;;;;9.70;9.40;;;7.40;99.90;;;;;;6235309;23;20190;-85
2024/01/22 12:37:18;;;;;;;9.60;9.30;;;7.40;99.90;;;;;;6235348;23;20245;-86
2024/01/22 12:39:45;;;;;;;9.63;9.33;;;7.40;99.90;;;;;;6216686;23;20277;-86
2024/01/22 12:42:18;;;;;;;9.70;9.40;;;7.40;99.90;;;;;;6240654;22;20198;-86
2024/01/22 12:44:59;;;;;;;9.40;9.10;;;7.40;99.90;;;;;;6235556;23;20218;-87
2024/01/22 12:47:26;;;;;;;9.40;9.10;;;7.30;99.90;;;;;;6235376;23;20219;-85
2024/01/22 12:49:58;;;;;;;9.70;9.40;;;7.30;99.90;;;;;;6231561;23;20223;-86
2024/01/22 12:52:26;;;;;;;9.73;9.43;;;7.30;99.90;;;;;;6233475;22;20214;-86
2024/01/22 12:54:54;;;;;;;9.63;9.33;;;7.30;99.90;;;;;;6231164;23;20194;-85
2024/01/22 12:57:21;;;;;;;8.90;8.70;;;7.20;99.90;;;;;;6230990;23;20278;-86
2024/01/22 12:59:50;;;;;;;9.37;9.07;;;7.20;99.90;;;;;;6231178;23;20218;-86
2024/01/22 13:02:17;;;;;;;9.20;8.90;;;7.20;99.90;;;;;;6233405;22;20258;-85
2024/01/22 13:04:48;;;;;;;9.43;9.13;;;7.10;99.90;;;;;;6233357;23;20267;-86
2024/01/22 13:07:21;;;;;;;9.37;9.07;;;7.10;99.90;;;;;;6234178;23;20218;-86
2024/01/22 13:09:48;;;;;;;9.47;9.17;;;7.00;99.90;;;;;;6232487;23;20230;-86
2024/01/22 13:12:16;;;;;;;9.60;9.30;;;7.10;99.90;;;;;;6232578;22;20203;-86
2024/01/22 13:14:45;;;;;;;9.70;9.40;;;7.00;99.90;;;;;;6230572;23;20251;-86
2024/01/22 13:17:12;;;;;;;9.43;9.13;;;7.00;99.90;;;;;;6230671;23;20209;-86
2024/01/22 13:19:40;;;;;;;9.57;9.27;;;7.10;99.90;;;;;;6231588;23;20206;-86
2024/01/22 13:22:07;;;;;;;10.00;9.70;;;7.10;99.90;;;;;;6232253;22;20218;-85
2024/01/22 13:24:36;;;;;;;10.10;9.80;;;7.10;99.90;;;;;;6234383;23;20277;-86
2024/01/22 13:27:06;;;;;;;10.30;10.00;;;7.10;99.90;;;;;;6250822;22;20210;-85
2024/01/22 13:29:33;;;;;;;10.20;9.90;;;7.10;99.90;;;;;;6249904;22;20194;-85
2024/01/22 13:32:01;;;;;;;9.90;9.60;;;7.10;99.90;;;;;;6238558;22;20198;-86
2024/01/22 13:34:28;;;;;;;10.10;9.80;;;7.10;99.90;;;;;;6233138;23;20205;-86
2024/01/22 13:36:55;;;;;;;9.70;9.40;;;7.00;99.90;;;;;;6233634;23;20198;-86
2024/01/22 13:39:23;;;;;;;9.77;9.47;;;7.10;99.90;;;;;;6231225;23;20214;-86
2024/01/22 13:41:52;;;;;;;9.80;9.50;;;7.10;99.90;;;;;;6232969;23;20254;-86
2024/01/22 13:44:19;;;;;;;9.90;9.60;;;7.10;99.90;;;;;;6231543;22;20206;-86
2024/01/22 13:46:48;;;;;;;10.23;9.93;;;7.10;99.90;;;;;;6231739;23;20209;-86
2024/01/22 13:49:15;;;;;;;9.93;9.63;;;7.10;99.90;;;;;;6235279;23;20226;-86
2024/01/22 13:51:42;;;;;;;10.07;9.77;;;7.10;99.90;;;;;;6245025;22;20191;-86
2024/01/22 13:54:10;;;;;;;10.20;9.90;;;7.10;99.90;;;;;;6232476;22;20203;-86
2024/01/22 13:56:38;;;;;;;9.60;9.30;;;7.10;99.90;;;;;;6232703;23;20195;-86
2024/01/22 13:59:11;;;;;;;9.80;9.50;;;7.10;99.90;;;;;;6233110;23;20199;-85
2024/01/22 14:01:38;;;;;;;10.10;9.80;;;7.10;99.90;;;;;;6232719;23;20253;-86
2024/01/22 14:04:06;;;;;;;10.10;9.80;;;7.10;99.90;;;;;;6231859;22;20289;-86
2024/01/22 14:06:33;;;;;;;10.00;9.70;;;7.10;99.90;;;;;;6231818;23;20205;-86
2024/01/22 14:09:05;;;;;;;9.87;9.57;;;7.20;99.90;;;;;;6231281;23;20201;-86
2024/01/22 14:11:32;;;;;;;10.07;9.77;;;7.20;99.90;;;;;;6231156;23;20197;-86
2024/01/22 14:14:00;;;;;;;10.40;10.10;;;7.20;99.90;;;;;;6248157;22;20234;-86
2024/01/22 14:16:29;;;;;;;10.23;9.93;;;7.20;99.90;;;;;;6250133;22;20187;-85
2024/01/22 14:18:56;;;;;;;10.03;9.73;;;7.30;99.90;;;;;;6249809;22;20179;-86
2024/01/22 14:21:23;;;;;;;10.07;9.77;;;7.30;99.90;;;;;;6249344;22;20201;-87
2024/01/22 14:23:51;;;;;;;10.00;9.70;;;7.40;99.90;;;;;;6248918;22;20195;-87
2024/01/22 14:26:18;;;;;;;10.07;9.77;;;7.40;99.90;;;;;;6249584;22;20214;-87
2024/01/22 14:28:45;;;;;;;10.00;9.70;;;7.40;99.90;;;;;;6249676;22;20205;-87
2024/01/22 14:31:13;;;;;;;10.00;9.70;;;7.50;99.90;;;;;;6249966;22;20179;-87
2024/01/22 14:33:42;;;;;;;9.83;9.53;;;7.60;99.90;;;;;;6249940;22;20187;-87
2024/01/22 14:36:10;;;;;;;9.90;9.60;;;7.60;99.90;;;;;;6224412;23;20171;-86
2024/01/22 14:38:37;;;;;;;9.70;9.40;;;7.70;99.90;;;;;;6250102;22;20264;-87
2024/01/22 14:41:05;;;;;;;9.50;9.20;;;7.80;99.90;;;;;;6249270;22;20179;-86
2024/01/22 14:43:35;;;;;;;9.63;9.33;;;7.80;99.90;;;;;;6235219;22;20206;-83
2024/01/22 14:46:19;;;;;;;9.67;9.37;;;7.80;99.90;;;;;;6231749;23;20191;-81
2024/01/22 14:48:48;;;;;;;10.00;9.70;;;7.80;99.90;;;;;;6231312;23;20212;-81
2024/01/22 14:51:16;;;;;;;9.93;9.63;;;7.80;99.90;;;;;;6230682;23;20281;-81
2024/01/22 14:53:56;;;;;;;10.03;9.73;;;7.80;99.90;;;;;;6232459;22;20588;-81
2024/01/22 14:56:23;;;;;;;9.80;9.50;;;7.80;99.90;;;;;;6231229;23;20194;-81
2024/01/22 14:58:56;;;;;;;10.33;10.03;;;7.80;99.90;;;;;;6230835;23;20194;-82
2024/01/22 15:01:32;;;;;;;10.27;9.97;;;7.80;99.90;;;;;;6231450;23;20199;-81
2024/01/22 15:04:03;;;;;;;10.27;9.97;;;7.80;99.90;;;;;;6231743;22;20262;-82
2024/01/22 15:06:31;;;;;;;9.80;9.50;;;7.90;99.90;;;;;;6234135;23;20250;-82
2024/01/22 15:09:12;;;;;;;10.07;9.77;;;8.00;99.90;;;;;;6230407;23;20213;-82
2024/01/22 15:11:40;;;;;;;9.60;9.30;;;8.00;99.90;;;;;;6230884;23;20206;-82
2024/01/22 15:14:12;;;;;;;9.70;9.40;;;8.00;99.90;;;;;;6232878;22;20199;-82
2024/01/22 15:16:41;;;;;;;10.10;9.80;;;8.10;99.90;;;;;;6233429;23;20278;-84
2024/01/22 15:19:10;;;;;;;9.87;9.57;;;8.10;99.90;;;;;;6231966;23;20286;-83
2024/01/22 15:21:43;;;;;;;9.97;9.67;;;8.00;99.90;;;;;;6234184;23;20187;-84
2024/01/22 15:24:53;;;;;;;9.80;9.50;;;8.00;99.90;;;;;;6236743;22;20202;-83
2024/01/22 15:27:53;;;;;;;9.87;9.57;;;7.90;99.90;;;;;;6209447;23;20207;-83
2024/01/22 15:30:29;;;;;;;10.00;9.70;;;7.90;99.90;;;;;;6175051;23;20199;-83
2024/01/22 15:33:20;;;;;;;9.83;9.53;;;7.80;99.90;;;;;;6233352;22;20246;-84
2024/01/22 15:40:03;;;;;;;10.00;9.70;;;7.80;99.90;;;;;;6121089;23;20197;-83
2024/01/22 15:43:28;;;;;;;10.20;9.90;;;7.80;99.90;;;;;;6232671;23;20198;-82
2024/01/22 15:46:08;;;;;;;9.93;9.63;;;7.80;99.90;;;;;;6052536;23;20246;-82
2024/01/22 15:48:53;;;;;;;10.00;9.70;;;7.80;99.90;;;;;;6048821;23;20261;-82
2024/01/22 15:51:31;;;;;;;9.90;9.60;;;7.80;99.90;;;;;;6050119;23;20206;-82
2024/01/22 15:54:00;;;;;;;9.73;9.43;;;7.70;99.90;;;;;;6050889;23;20203;-82
2024/01/22 15:56:29;;;;;;;9.90;9.60;;;7.70;99.90;;;;;;6050869;23;20203;-82